Terminal Aerodrome Forecast
Issued by NWS

Home | Current Version | Previous Version | Text Only | Print | Product List | Glossary On
Versions: 1 2 3 4 5 6 7 8 9 10 11 12 13 14 15 16
000
FTUS43 KDMX 251220 AAA
TAFMCW
TAF AMD
KMCW 251220Z 2512/2612 14007KT P6SM VCTS SCT040CB OVC100
      TEMPO 2512/2514 3SM TSRA SCT020CB OVC040
     FM251600 15011KT P6SM VCTS OVC040CB
     FM251900 17016KT P6SM SCT040 BKN070
     FM260300 19005KT P6SM VCTS BKN035CB OVC080
     FM261000 22005KT P6SM SCT020 BKN100=

USA.gov is the U.S. government's official web portal to all federal, state and local government web resources and services.